| time (UTC) | temp F | wind direction | speed MPH | gust MPH | rain 1hr in | rain 24hr in | rain mn in | humidity % | barometer mb |
| 20260904115818 | 74 | 329 | 2.0 | 5.0 | 0.00 | 0.25 | 0.25 | 90 | 1011.7 |
| 20260904115315 | 74 | 317 | 2.0 | 6.0 | 0.00 | 0.25 | 0.25 | 91 | 1011.7 |
| 20260904114816 | 73 | 306 | 3.0 | 6.0 | 0.00 | 0.25 | 0.25 | 92 | 1011.4 |
| 20260904114314 | 73 | 35 | 1.0 | 4.0 | 0.00 | 0.25 | 0.25 | 93 | 1011.4 |
| 20260904113811 | 73 | 297 | 0.0 | 6.0 | 0.00 | 0.25 | 0.25 | 94 | 1011.5 |
| 20260904113328 | 73 | 325 | 2.0 | 6.0 | 0.00 | 0.25 | 0.25 | 94 | 1011.6 |
| 20260904112825 | 72 | 341 | 1.0 | 7.0 | 0.00 | 0.25 | 0.25 | 94 | 1011.4 |
| 20260904112321 | 72 | 315 | 2.0 | 5.0 | 0.00 | 0.25 | 0.25 | 95 | 1011.4 |
| 20260904111818 | 72 | 327 | 1.0 | 6.0 | 0.00 | 0.25 | 0.25 | 95 | 1011.4 |
| 20260904111319 | 72 | 335 | 2.0 | 6.0 | 0.00 | 0.25 | 0.25 | 95 | 1011.4 |
| 20260904110816 | 72 | 248 | 2.0 | 5.0 | 0.00 | 0.25 | 0.25 | 95 | 1011.2 |
| 20260904110313 | 72 | 309 | 3.0 | 5.0 | 0.00 | 0.25 | 0.25 | 95 | 1011.2 |
| 20260904105830 | 72 | 347 | 2.0 | 5.0 | 0.00 | 0.25 | 0.25 | 95 | 1011.2 |
| 20260904105328 | 72 | 343 | 2.0 | 6.0 | 0.00 | 0.25 | 0.25 | 95 | 1011.4 |
| 20260904104825 | 72 | 301 | 2.0 | 8.0 | 0.00 | 0.25 | 0.25 | 95 | 1011.5 |
| 20260904104322 | 72 | 306 | 4.0 | 8.0 | 0.00 | 0.25 | 0.25 | 95 | 1011.3 |
| 20260904103823 | 72 | 355 | 3.0 | 6.0 | 0.00 | 0.25 | 0.25 | 95 | 1011.2 |
| 20260904103320 | 72 | 296 | 3.0 | 6.0 | 0.00 | 0.25 | 0.25 | 95 | 1011.2 |
| 20260904102817 | 72 | 331 | 1.0 | 5.0 | 0.00 | 0.25 | 0.25 | 95 | 1011.2 |
| 20260904102315 | 72 | 315 | 2.0 | 10.0 | 0.00 | 0.25 | 0.25 | 95 | 1011.3 |
| 20260904101812 | 72 | 265 | 1.0 | 10.0 | 0.00 | 0.25 | 0.25 | 95 | 1011.1 |
| 20260904101329 | 72 | 304 | 2.0 | 9.0 | 0.00 | 0.25 | 0.25 | 95 | 1011.2 |
| 20260904100826 | 72 | 329 | 2.0 | 8.0 | 0.00 | 0.25 | 0.25 | 95 | 1011.1 |
| 20260904100327 | 72 | 328 | 3.0 | 8.0 | 0.00 | 0.25 | 0.25 | 95 | 1010.9 |
| 20260904095824 | 72 | 344 | 4.0 | 8.0 | 0.00 | 0.25 | 0.25 | 95 | 1010.8 |
| 20260904095322 | 72 | 355 | 3.0 | 8.0 | 0.00 | 0.25 | 0.25 | 95 | 1010.7 |
| 20260904094819 | 72 | 313 | 3.0 | 8.0 | 0.00 | 0.25 | 0.25 | 95 | 1010.7 |
| 20260904094316 | 72 | 355 | 3.0 | 6.0 | 0.00 | 0.25 | 0.25 | 95 | 1010.7 |
| 20260904093813 | 72 | 326 | 3.0 | 6.0 | 0.00 | 0.25 | 0.25 | 95 | 1010.7 |
| 20260904093330 | 72 | 355 | 3.0 | 5.0 | 0.00 | 0.25 | 0.25 | 95 | 1010.7 |
| 20260904092811 | 72 | 319 | 3.0 | 5.0 | 0.00 | 0.25 | 0.25 | 95 | 1010.7 |
| 20260904092329 | 72 | 315 | 2.0 | 6.0 | 0.00 | 0.25 | 0.25 | 95 | 1010.6 |
| 20260904091826 | 72 | 306 | 2.0 | 6.0 | 0.00 | 0.25 | 0.25 | 95 | 1010.7 |
| 20260904091323 | 72 | 275 | 1.0 | 5.0 | 0.00 | 0.25 | 0.25 | 95 | 1010.7 |
| 20260904090820 | 72 | 323 | 2.0 | 4.0 | 0.00 | 0.25 | 0.25 | 95 | 1010.7 |
| 20260904090317 | 72 | 298 | 1.0 | 5.0 | 0.00 | 0.25 | 0.25 | 95 | 1010.9 |
| 20260904085814 | 72 | 294 | 2.0 | 5.0 | 0.00 | 0.28 | 0.25 | 95 | 1010.7 |
| 20260904085315 | 72 | 336 | 1.0 | 5.0 | 0.00 | 0.28 | 0.25 | 95 | 1010.7 |
| 20260904084812 | 72 | 309 | 1.0 | 5.0 | 0.00 | 0.28 | 0.25 | 95 | 1010.8 |
| 20260904084329 | 72 | 318 | 3.0 | 5.0 | 0.00 | 0.28 | 0.25 | 95 | 1010.6 |
| 20260904083826 | 72 | 355 | 1.0 | 3.0 | 0.00 | 0.28 | 0.25 | 95 | 1010.8 |
| 20260904083323 | 72 | 355 | 1.0 | 4.0 | 0.00 | 0.28 | 0.25 | 95 | 1010.9 |
| 20260904082820 | 72 | 342 | 1.0 | 4.0 | 0.00 | 0.28 | 0.25 | 95 | 1010.9 |
| 20260904082318 | 72 | 321 | 1.0 | 4.0 | 0.00 | 0.28 | 0.25 | 95 | 1010.8 |
| 20260904081819 | 72 | 261 | 1.0 | 4.0 | 0.00 | 0.28 | 0.25 | 95 | 1010.7 |
| 20260904081316 | 72 | 282 | 1.0 | 4.0 | 0.00 | 0.28 | 0.25 | 95 | 1010.7 |
| 20260904080813 | 72 | 261 | 0.0 | 2.0 | 0.00 | 0.28 | 0.25 | 95 | 1010.6 |
| 20260904080330 | 72 | 298 | 0.0 | 2.0 | 0.00 | 0.28 | 0.25 | 95 | 1010.5 |
| 20260904075826 | 72 | 315 | 1.0 | 3.0 | 0.00 | 0.29 | 0.25 | 95 | 1010.6 |
| 20260904075323 | 72 | 314 | 0.0 | 4.0 | 0.00 | 0.29 | 0.25 | 95 | 1010.7 |
| 20260904074820 | 72 | 294 | 0.0 | 4.0 | 0.00 | 0.29 | 0.25 | 95 | 1010.6 |
| 20260904074321 | 71 | 332 | 0.0 | 1.0 | 0.00 | 0.29 | 0.25 | 94 | 1010.7 |
| 20260904073818 | 71 | 278 | 0.0 | 0.0 | 0.00 | 0.29 | 0.25 | 94 | 1010.6 |
| 20260904073315 | 71 | 278 | 0.0 | 1.0 | 0.00 | 0.29 | 0.25 | 94 | 1010.5 |
| 20260904072812 | 71 | 278 | 0.0 | 1.0 | 0.00 | 0.29 | 0.25 | 94 | 1010.5 |
| 20260904072329 | 71 | 278 | 0.0 | 1.0 | 0.00 | 0.29 | 0.25 | 94 | 1010.5 |
| 20260904071826 | 71 | 278 | 0.0 | 3.0 | 0.00 | 0.29 | 0.25 | 94 | 1010.4 |
| 20260904071324 | 71 | 337 | 0.0 | 3.0 | 0.01 | 0.29 | 0.25 | 94 | 1010.3 |
| 20260904070825 | 71 | 286 | 0.0 | 1.0 | 0.06 | 0.29 | 0.25 | 93 | 1010.3 |
| 20260904070322 | 71 | 223 | 0.0 | 2.0 | 0.14 | 0.29 | 0.25 | 93 | 1010.3 |
| 20260904065819 | 71 | 223 | 0.0 | 3.0 | 0.22 | 0.38 | 0.25 | 93 | 1010.3 |
| 20260904065316 | 71 | 312 | 1.0 | 4.0 | 0.25 | 0.38 | 0.25 | 93 | 1010.3 |
| 20260904064813 | 71 | 329 | 2.0 | 4.0 | 0.25 | 0.38 | 0.25 | 93 | 1010.2 |
| 20260904064330 | 71 | 317 | 2.0 | 3.0 | 0.25 | 0.38 | 0.25 | 93 | 1010.2 |
| 20260904063811 | 71 | 329 | 0.0 | 3.0 | 0.25 | 0.38 | 0.25 | 92 | 1010.3 |
| 20260904063328 | 72 | 329 | 1.0 | 3.0 | 0.25 | 0.38 | 0.25 | 92 | 1010.2 |
| 20260904062825 | 72 | 296 | 0.0 | 2.0 | 0.25 | 0.38 | 0.25 | 92 | 1010.3 |
| 20260904062323 | 72 | 334 | 0.0 | 2.0 | 0.25 | 0.38 | 0.25 | 92 | 1010.4 |
| 20260904061820 | 72 | 197 | 0.0 | 3.0 | 0.25 | 0.38 | 0.25 | 91 | 1010.4 |
| 20260904061317 | 73 | 140 | 0.0 | 4.0 | 0.24 | 0.37 | 0.24 | 90 | 1010.5 |
| 20260904060814 | 73 | 9 | 1.0 | 13.0 | 0.18 | 0.31 | 0.18 | 89 | 1011.6 |
| 20260904060315 | 75 | 338 | 4.0 | 20.0 | 0.09 | 0.22 | 0.09 | 87 | 1012.3 |
| 20260904055812 | 76 | 49 | 4.0 | 20.0 | 0.03 | 0.21 | 0.03 | 84 | 1012.0 |
| 20260904055330 | 77 | 275 | 3.0 | 8.0 | 0.00 | 0.18 | 0.00 | 85 | 1011.8 |
| 20260904054827 | 77 | 319 | 1.0 | 5.0 | 0.00 | 0.18 | 0.00 | 85 | 1011.6 |
| 20260904054324 | 77 | 259 | 1.0 | 6.0 | 0.00 | 0.18 | 0.00 | 86 | 1011.5 |
| 20260904053821 | 76 | 272 | 1.0 | 6.0 | 0.00 | 0.18 | 0.00 | 86 | 1011.2 |
| 20260904053318 | 76 | 14 | 1.0 | 2.0 | 0.00 | 0.18 | 0.00 | 87 | 1011.5 |
| 20260904052819 | 76 | 284 | 0.0 | 4.0 | 0.00 | 0.18 | 0.00 | 88 | 1011.6 |
| 20260904052316 | 76 | 298 | 1.0 | 4.0 | 0.00 | 0.18 | 0.00 | 89 | 1011.7 |
| 20260904051813 | 75 | 284 | 0.0 | 3.0 | 0.00 | 0.18 | 0.00 | 90 | 1011.6 |
| 20260904051330 | 75 | 317 | 0.0 | 2.0 | 0.00 | 0.18 | 0.00 | 91 | 1011.7 |
| 20260904050827 | 75 | 338 | 0.0 | 0.0 | 0.00 | 0.18 | 0.00 | 91 | 1011.7 |
| 20260904050324 | 75 | 338 | 0.0 | 0.0 | 0.00 | 0.18 | 0.00 | 90 | 1011.6 |
| 20260904045821 | 75 | 338 | 0.0 | 0.0 | 0.00 | 0.31 | 0.00 | 90 | 1011.4 |
| 20260904045322 | 75 | 338 | 0.0 | 0.0 | 0.00 | 0.31 | 0.00 | 90 | 1011.2 |
| 20260904044819 | 75 | 338 | 0.0 | 0.0 | 0.00 | 0.31 | 0.00 | 90 | 1011.1 |
| 20260904044315 | 76 | 338 | 0.0 | 0.0 | 0.00 | 0.31 | 0.00 | 89 | 1011.3 |
| 20260904043812 | 76 | 338 | 0.0 | 0.0 | 0.00 | 0.31 | 0.00 | 88 | 1011.4 |
| 20260904043329 | 76 | 338 | 0.0 | 0.0 | 0.00 | 0.31 | 0.00 | 88 | 1011.5 |
| 20260904042826 | 76 | 29 | 0.0 | 0.0 | 0.00 | 0.31 | 0.00 | 88 | 1011.6 |
| 20260904042324 | 76 | 350 | 0.0 | 0.0 | 0.00 | 0.31 | 0.00 | 88 | 1011.7 |
| 20260904041825 | 76 | 350 | 0.0 | 0.0 | 0.00 | 0.31 | 0.00 | 88 | 1011.9 |
| 20260904041322 | 76 | 350 | 0.0 | 0.0 | 0.00 | 0.31 | 0.00 | 88 | 1011.9 |
| 20260904040819 | 76 | 355 | 0.0 | 0.0 | 0.00 | 0.31 | 0.00 | 88 | 1012.0 |
| 20260904040316 | 76 | 355 | 0.0 | 0.0 | 0.00 | 0.31 | 0.00 | 88 | 1012.0 |
| 20260904035813 | 76 | 355 | 0.0 | 0.0 | 0.00 | 0.31 | 0.31 | 88 | 1012.0 |
| 20260904035311 | 76 | 355 | 0.0 | 0.0 | 0.00 | 0.31 | 0.31 | 88 | 1012.0 |
| 20260904034828 | 76 | 355 | 0.0 | 0.0 | 0.00 | 0.31 | 0.31 | 88 | 1012.1 |
| 20260904034329 | 76 | 355 | 0.0 | 0.0 | 0.00 | 0.31 | 0.31 | 88 | 1012.1 |
| 20260904033826 | 76 | 22 | 0.0 | 0.0 | 0.00 | 0.31 | 0.31 | 88 | 1012.2 |
| 20260904033323 | 76 | 319 | 0.0 | 0.0 | 0.00 | 0.31 | 0.31 | 88 | 1012.1 |
| 20260904032819 | 76 | 319 | 0.0 | 0.0 | 0.00 | 0.31 | 0.31 | 88 | 1012.0 |
| 20260904032316 | 76 | 319 | 0.0 | 0.0 | 0.00 | 0.31 | 0.31 | 87 | 1011.9 |
| 20260904031813 | 76 | 319 | 0.0 | 0.0 | 0.00 | 0.31 | 0.31 | 87 | 1011.9 |
| 20260904031330 | 76 | 319 | 0.0 | 0.0 | 0.00 | 0.31 | 0.31 | 87 | 1011.9 |
| 20260904030811 | 76 | 319 | 0.0 | 0.0 | 0.00 | 0.31 | 0.31 | 87 | 1011.9 |
| 20260904030328 | 77 | 319 | 0.0 | 0.0 | 0.00 | 0.31 | 0.31 | 87 | 1012.0 |
| 20260904025825 | 77 | 319 | 0.0 | 0.0 | 0.00 | 0.31 | 0.31 | 87 | 1011.9 |
| 20260904025322 | 77 | 319 | 0.0 | 0.0 | 0.00 | 0.31 | 0.31 | 86 | 1011.8 |
| 20260904024819 | 77 | 319 | 0.0 | 0.0 | 0.00 | 0.31 | 0.31 | 87 | 1011.9 |
| 20260904024316 | 77 | 319 | 0.0 | 0.0 | 0.00 | 0.31 | 0.31 | 87 | 1012.1 |
| 20260904023813 | 77 | 319 | 0.0 | 0.0 | 0.00 | 0.31 | 0.31 | 88 | 1012.4 |
| 20260904023314 | 76 | 319 | 0.0 | 0.0 | 0.00 | 0.31 | 0.31 | 87 | 1012.6 |
| 20260904022811 | 77 | 319 | 0.0 | 0.0 | 0.00 | 0.31 | 0.31 | 87 | 1012.6 |
| 20260904022329 | 77 | 306 | 0.0 | 0.0 | 0.00 | 0.31 | 0.31 | 86 | 1012.4 |
| 20260904021826 | 77 | 306 | 0.0 | 0.0 | 0.00 | 0.31 | 0.31 | 86 | 1012.5 |
| 20260904021322 | 77 | 306 | 0.0 | 0.0 | 0.00 | 0.31 | 0.31 | 86 | 1012.6 |
| 20260904020819 | 77 | 306 | 0.0 | 0.0 | 0.00 | 0.31 | 0.31 | 86 | 1012.7 |
| 20260904020316 | 78 | 306 | 0.0 | 2.0 | 0.00 | 0.31 | 0.31 | 84 | 1012.8 |
| 20260904015816 | 78 | 306 | 0.0 | 2.0 | 0.00 | 0.32 | 0.31 | 84 | 1012.8 |
| 20260904015314 | 78 | 311 | 1.0 | 2.0 | 0.00 | 0.32 | 0.31 | 83 | 1012.8 |
| 20260904014811 | 78 | 190 | 0.0 | 3.0 | 0.00 | 0.32 | 0.31 | 84 | 1012.7 |
| 20260904014328 | 78 | 326 | 0.0 | 0.0 | 0.00 | 0.32 | 0.31 | 84 | 1012.9 |
| 20260904013825 | 78 | 336 | 0.0 | 0.0 | 0.00 | 0.32 | 0.31 | 84 | 1012.9 |
| 20260904013322 | 78 | 336 | 0.0 | 0.0 | 0.00 | 0.32 | 0.31 | 84 | 1013.0 |
| 20260904012819 | 78 | 202 | 0.0 | 1.0 | 0.00 | 0.32 | 0.31 | 85 | 1013.1 |
| 20260904012321 | 77 | 198 | 0.0 | 1.0 | 0.00 | 0.32 | 0.31 | 87 | 1013.0 |
| 20260904011818 | 77 | 203 | 0.0 | 0.0 | 0.00 | 0.32 | 0.31 | 87 | 1013.0 |
| 20260904011315 | 77 | 212 | 0.0 | 0.0 | 0.00 | 0.32 | 0.31 | 87 | 1012.9 |
| 20260904010812 | 77 | 212 | 0.0 | 0.0 | 0.00 | 0.32 | 0.31 | 87 | 1012.8 |
| 20260904010329 | 77 | 212 | 0.0 | 0.0 | 0.00 | 0.32 | 0.31 | 87 | 1012.8 |
| 20260904005826 | 77 | 212 | 0.0 | 0.0 | 0.00 | 0.32 | 0.31 | 87 | 1012.7 |
| 20260904005324 | 77 | 212 | 0.0 | 0.0 | 0.00 | 0.32 | 0.31 | 85 | 1012.8 |
| 20260904004825 | 77 | 212 | 0.0 | 0.0 | 0.00 | 0.32 | 0.31 | 86 | 1012.8 |
| 20260904004322 | 77 | 212 | 0.0 | 0.0 | 0.00 | 0.32 | 0.31 | 85 | 1012.5 |
| 20260904003819 | 77 | 212 | 0.0 | 0.0 | 0.00 | 0.32 | 0.31 | 85 | 1012.6 |
| 20260904003316 | 78 | 212 | 0.0 | 0.0 | 0.00 | 0.32 | 0.31 | 84 | 1012.6 |
| 20260904002813 | 78 | 212 | 0.0 | 0.0 | 0.00 | 0.32 | 0.31 | 83 | 1012.5 |
| 20260904002311 | 78 | 212 | 0.0 | 0.0 | 0.00 | 0.32 | 0.31 | 83 | 1012.2 |
| 20260904001812 | 78 | 212 | 0.0 | 0.0 | 0.00 | 0.32 | 0.31 | 83 | 1012.4 |
| 20260904001329 | 78 | 212 | 0.0 | 0.0 | 0.00 | 0.32 | 0.31 | 83 | 1012.2 |
| 20260904000826 | 78 | 212 | 0.0 | 0.0 | 0.00 | 0.32 | 0.31 | 84 | 1012.3 |
| 20260904000325 | 78 | 212 | 0.0 | 0.0 | 0.00 | 0.32 | 0.31 | 84 | 1012.5 |
| 20260903235820 | 78 | 212 | 0.0 | 0.0 | 0.00 | 0.32 | 0.31 | 84 | 1012.6 |
| 20260903235317 | 78 | 212 | 0.0 | 0.0 | 0.00 | 0.32 | 0.31 | 84 | 1012.6 |
| 20260903234814 | 78 | 212 | 0.0 | 0.0 | 0.00 | 0.32 | 0.31 | 84 | 1012.4 |
| 20260903234313 | 78 | 212 | 0.0 | 0.0 | 0.00 | 0.32 | 0.31 | 84 | 1012.3 |
| 20260903233830 | 78 | 212 | 0.0 | 0.0 | 0.00 | 0.32 | 0.31 | 84 | 1012.3 |
| 20260903233327 | 78 | 212 | 0.0 | 0.0 | 0.00 | 0.32 | 0.31 | 84 | 1012.2 |
| 20260903232824 | 78 | 212 | 0.0 | 0.0 | 0.00 | 0.32 | 0.31 | 84 | 1012.3 |
| 20260903232322 | 79 | 212 | 0.0 | 0.0 | 0.00 | 0.32 | 0.31 | 83 | 1012.3 |
| 20260903231819 | 79 | 212 | 0.0 | 0.0 | 0.00 | 0.32 | 0.31 | 83 | 1012.2 |
| 20260903231315 | 79 | 212 | 0.0 | 0.0 | 0.00 | 0.32 | 0.31 | 82 | 1012.2 |
| 20260903230816 | 80 | 212 | 0.0 | 0.0 | 0.00 | 0.32 | 0.31 | 82 | 1012.2 |
| 20260903230313 | 80 | 212 | 0.0 | 0.0 | 0.00 | 0.32 | 0.31 | 83 | 1012.1 |
| 20260903225830 | 80 | 212 | 0.0 | 0.0 | 0.00 | 0.32 | 0.31 | 82 | 1012.2 |
| 20260903225328 | 81 | 212 | 0.0 | 0.0 | 0.00 | 0.32 | 0.31 | 82 | 1012.2 |
| 20260903224825 | 81 | 212 | 0.0 | 0.0 | 0.00 | 0.32 | 0.31 | 81 | 1012.3 |
| 20260903224322 | 81 | 212 | 0.0 | 0.0 | 0.00 | 0.32 | 0.31 | 81 | 1012.2 |
| 20260903223819 | 81 | 213 | 0.0 | 0.0 | 0.00 | 0.32 | 0.31 | 80 | 1012.2 |
| 20260903223320 | 82 | 213 | 0.0 | 0.0 | 0.00 | 0.32 | 0.31 | 80 | 1012.1 |
| 20260903222816 | 81 | 213 | 0.0 | 0.0 | 0.00 | 0.32 | 0.31 | 80 | 1012.3 |
| 20260903222314 | 82 | 213 | 0.0 | 0.0 | 0.00 | 0.32 | 0.31 | 78 | 1012.3 |
| 20260903221811 | 83 | 213 | 0.0 | 0.0 | 0.00 | 0.32 | 0.31 | 77 | 1012.4 |
| 20260903221328 | 83 | 284 | 0.0 | 0.0 | 0.00 | 0.32 | 0.31 | 74 | 1012.3 |
| 20260903220825 | 83 | 288 | 0.0 | 0.0 | 0.00 | 0.32 | 0.31 | 72 | 1012.3 |
| 20260903220322 | 84 | 294 | 0.0 | 0.0 | 0.00 | 0.32 | 0.31 | 72 | 1012.3 |
| 20260903215823 | 84 | 294 | 0.0 | 1.0 | 0.00 | 0.32 | 0.31 | 70 | 1012.3 |
| 20260903215321 | 85 | 292 | 0.0 | 2.0 | 0.00 | 0.32 | 0.31 | 70 | 1012.2 |
| 20260903214818 | 85 | 308 | 1.0 | 2.0 | 0.00 | 0.32 | 0.31 | 69 | 1012.1 |
| 20260903214315 | 84 | 315 | 0.0 | 8.0 | 0.00 | 0.32 | 0.31 | 70 | 1012.1 |
| 20260903213812 | 84 | 261 | 1.0 | 8.0 | 0.00 | 0.32 | 0.31 | 69 | 1012.0 |
| 20260903213329 | 84 | 321 | 0.0 | 3.0 | 0.00 | 0.32 | 0.31 | 70 | 1012.0 |
| 20260903212826 | 84 | 348 | 0.0 | 0.0 | 0.00 | 0.32 | 0.31 | 73 | 1012.0 |
| 20260903212327 | 84 | 5 | 0.0 | 2.0 | 0.00 | 0.32 | 0.31 | 72 | 1012.0 |
| 20260903211824 | 85 | 319 | 0.0 | 2.0 | 0.00 | 0.32 | 0.31 | 71 | 1012.0 |
| 20260903211321 | 84 | 349 | 0.0 | 2.0 | 0.00 | 0.32 | 0.31 | 71 | 1012.1 |
| 20260903210818 | 84 | 79 | 1.0 | 2.0 | 0.00 | 0.32 | 0.31 | 70 | 1012.1 |
| 20260903210315 | 84 | 16 | 1.0 | 4.0 | 0.00 | 0.32 | 0.31 | 70 | 1012.1 |
| 20260903205812 | 84 | 262 | 0.0 | 5.0 | 0.00 | 0.32 | 0.31 | 70 | 1012.2 |
| 20260903205328 | 85 | 325 | 1.0 | 5.0 | 0.00 | 0.32 | 0.31 | 68 | 1012.2 |
| 20260903204829 | 85 | 240 | 1.0 | 4.0 | 0.00 | 0.32 | 0.31 | 67 | 1012.2 |
| 20260903204326 | 85 | 20 | 1.0 | 10.0 | 0.00 | 0.32 | 0.31 | 67 | 1012.2 |
| 20260903203823 | 85 | 309 | 4.0 | 10.0 | 0.00 | 0.32 | 0.31 | 67 | 1012.2 |
| 20260903203320 | 85 | 355 | 0.0 | 5.0 | 0.00 | 0.32 | 0.31 | 68 | 1012.1 |
| 20260903202817 | 85 | 9 | 3.0 | 8.0 | 0.00 | 0.32 | 0.31 | 68 | 1012.3 |
| 20260903202314 | 85 | 334 | 1.0 | 8.0 | 0.00 | 0.32 | 0.31 | 66 | 1012.3 |
| 20260903201811 | 85 | 327 | 1.0 | 6.0 | 0.00 | 0.32 | 0.31 | 68 | 1012.3 |
| 20260903201312 | 85 | 5 | 2.0 | 7.0 | 0.00 | 0.32 | 0.31 | 67 | 1012.2 |
| 20260903200829 | 85 | 9 | 3.0 | 6.0 | 0.00 | 0.32 | 0.31 | 66 | 1012.3 |
| 20260903200326 | 85 | 344 | 2.0 | 4.0 | 0.00 | 0.32 | 0.31 | 66 | 1012.2 |
| 20260903195822 | 85 | 117 | 1.0 | 4.0 | 0.00 | 0.32 | 0.31 | 69 | 1012.3 |
| 20260903195320 | 84 | 355 | 1.0 | 6.0 | 0.00 | 0.32 | 0.31 | 67 | 1012.3 |
| 20260903194817 | 84 | 345 | 1.0 | 6.0 | 0.00 | 0.32 | 0.31 | 69 | 1012.3 |
| 20260903194314 | 85 | 274 | 2.0 | 4.0 | 0.00 | 0.32 | 0.31 | 68 | 1012.4 |
| 20260903193815 | 84 | 333 | 2.0 | 4.0 | 0.00 | 0.32 | 0.31 | 67 | 1012.4 |
| 20260903193312 | 85 | 325 | 1.0 | 5.0 | 0.00 | 0.32 | 0.31 | 67 | 1012.4 |
| 20260903192828 | 84 | 9 | 2.0 | 5.0 | 0.00 | 0.32 | 0.31 | 68 | 1012.4 |
| 20260903192326 | 84 | 355 | 1.0 | 5.0 | 0.00 | 0.32 | 0.31 | 69 | 1012.5 |
| 20260903191823 | 84 | 360 | 2.0 | 9.0 | 0.00 | 0.32 | 0.31 | 68 | 1012.5 |
| 20260903191320 | 84 | 347 | 1.0 | 8.0 | 0.00 | 0.32 | 0.31 | 69 | 1012.6 |
| 20260903190817 | 83 | 342 | 2.0 | 8.0 | 0.00 | 0.32 | 0.31 | 70 | 1012.6 |
| 20260903190318 | 83 | 194 | 2.0 | 8.0 | 0.00 | 0.32 | 0.31 | 70 | 1012.7 |
| 20260903185814 | 83 | 306 | 3.0 | 8.0 | 0.00 | 0.34 | 0.31 | 70 | 1012.7 |
| 20260903185311 | 83 | 333 | 2.0 | 10.0 | 0.00 | 0.34 | 0.31 | 70 | 1012.8 |
| 20260903184828 | 83 | 321 | 4.0 | 10.0 | 0.00 | 0.34 | 0.31 | 70 | 1012.8 |
| 20260903184326 | 83 | 290 | 3.0 | 10.0 | 0.00 | 0.34 | 0.31 | 71 | 1013.0 |
| 20260903183823 | 83 | 306 | 1.0 | 10.0 | 0.00 | 0.34 | 0.31 | 70 | 1013.1 |
| 20260903183320 | 83 | 240 | 0.0 | 7.0 | 0.00 | 0.34 | 0.31 | 71 | 1013.0 |
| 20260903182820 | 83 | 350 | 2.0 | 8.0 | 0.00 | 0.34 | 0.31 | 70 | 1013.0 |
| 20260903182318 | 82 | 248 | 1.0 | 14.0 | 0.00 | 0.34 | 0.31 | 71 | 1013.2 |
| 20260903181815 | 82 | 349 | 3.0 | 9.0 | 0.00 | 0.34 | 0.31 | 72 | 1013.1 |
| 20260903181311 | 82 | 217 | 3.0 | 12.0 | 0.00 | 0.34 | 0.31 | 72 | 1013.1 |
| 20260903180828 | 82 | 325 | 4.0 | 12.0 | 0.00 | 0.34 | 0.31 | 72 | 1013.2 |
| 20260903180325 | 82 | 304 | 3.0 | 9.0 | 0.00 | 0.34 | 0.31 | 71 | 1013.2 |
| 20260903175821 | 82 | 272 | 3.0 | 9.0 | 0.00 | 0.34 | 0.31 | 72 | 1013.2 |
| 20260903175323 | 82 | 305 | 5.0 | 9.0 | 0.00 | 0.34 | 0.31 | 72 | 1013.2 |
| 20260903174820 | 82 | 347 | 3.0 | 6.0 | 0.00 | 0.34 | 0.31 | 73 | 1013.1 |
| 20260903174317 | 81 | 325 | 3.0 | 8.0 | 0.00 | 0.34 | 0.31 | 74 | 1013.2 |
| 20260903173814 | 81 | 321 | 3.0 | 9.0 | 0.00 | 0.34 | 0.31 | 74 | 1013.3 |
| 20260903173311 | 81 | 360 | 4.0 | 9.0 | 0.00 | 0.34 | 0.31 | 74 | 1013.2 |
| 20260903172827 | 81 | 355 | 4.0 | 8.0 | 0.00 | 0.34 | 0.31 | 73 | 1013.3 |
| 20260903172324 | 81 | 355 | 1.0 | 6.0 | 0.00 | 0.34 | 0.31 | 75 | 1013.5 |
| 20260903171825 | 80 | 297 | 3.0 | 11.0 | 0.00 | 0.34 | 0.31 | 75 | 1013.7 |
| 20260903171322 | 80 | 355 | 4.0 | 11.0 | 0.00 | 0.34 | 0.31 | 76 | 1014.0 |
| 20260903170819 | 80 | 65 | 3.0 | 11.0 | 0.00 | 0.34 | 0.31 | 74 | 1014.1 |
| 20260903170315 | 81 | 24 | 3.0 | 11.0 | 0.00 | 0.34 | 0.31 | 74 | 1014.0 |
| 20260903165812 | 80 | 168 | 2.0 | 7.0 | 0.00 | 0.34 | 0.31 | 76 | 1014.0 |
| 20260903165330 | 80 | 281 | 2.0 | 9.0 | 0.00 | 0.34 | 0.31 | 76 | 1013.9 |
| 20260903164811 | 79 | 225 | 4.0 | 11.0 | 0.00 | 0.34 | 0.31 | 77 | 1014.0 |
| 20260903164328 | 79 | 46 | 3.0 | 10.0 | 0.00 | 0.34 | 0.31 | 77 | 1014.1 |
| 20260903163825 | 79 | 298 | 3.0 | 10.0 | 0.00 | 0.34 | 0.31 | 78 | 1014.1 |
| 20260903163322 | 78 | 289 | 2.0 | 5.0 | 0.00 | 0.34 | 0.31 | 79 | 1014.3 |
| 20260903162819 | 78 | 325 | 3.0 | 8.0 | 0.00 | 0.34 | 0.31 | 80 | 1014.3 |
| 20260903162317 | 78 | 308 | 2.0 | 8.0 | 0.00 | 0.34 | 0.31 | 80 | 1014.3 |
| 20260903161814 | 77 | 5 | 2.0 | 6.0 | 0.00 | 0.34 | 0.31 | 80 | 1014.3 |
| 20260903161314 | 77 | 292 | 1.0 | 5.0 | 0.00 | 0.34 | 0.31 | 80 | 1014.5 |
| 20260903160811 | 77 | 355 | 0.0 | 6.0 | 0.00 | 0.34 | 0.31 | 81 | 1014.6 |
| 20260903160328 | 77 | 296 | 3.0 | 8.0 | 0.00 | 0.34 | 0.31 | 80 | 1014.5 |
| 20260903155824 | 77 | 250 | 4.0 | 10.0 | 0.00 | 0.34 | 0.31 | 79 | 1014.5 |
| 20260903155322 | 77 | 82 | 3.0 | 10.0 | 0.00 | 0.34 | 0.31 | 80 | 1014.6 |
| 20260903154819 | 77 | 355 | 2.0 | 8.0 | 0.00 | 0.34 | 0.31 | 81 | 1014.7 |
| 20260903154316 | 77 | 297 | 3.0 | 8.0 | 0.00 | 0.34 | 0.31 | 81 | 1014.8 |
| 20260903153816 | 76 | 13 | 2.0 | 6.0 | 0.00 | 0.34 | 0.31 | 82 | 1014.9 |
| 20260903153313 | 76 | 273 | 2.0 | 6.0 | 0.00 | 0.34 | 0.31 | 82 | 1014.8 |
| 20260903152830 | 76 | 320 | 1.0 | 6.0 | 0.00 | 0.34 | 0.31 | 83 | 1015.0 |
| 20260903152329 | 76 | 33 | 2.0 | 6.0 | 0.00 | 0.34 | 0.31 | 84 | 1015.0 |
| 20260903151825 | 76 | 336 | 0.0 | 8.0 | 0.00 | 0.34 | 0.31 | 84 | 1015.2 |
| 20260903151321 | 76 | 310 | 3.0 | 8.0 | 0.00 | 0.34 | 0.31 | 84 | 1015.2 |
| 20260903150818 | 75 | 340 | 2.0 | 7.0 | 0.00 | 0.34 | 0.31 | 85 | 1015.2 |
| 20260903150319 | 75 | 336 | 2.0 | 7.0 | 0.00 | 0.34 | 0.31 | 85 | 1015.2 |
| 20260903145816 | 75 | 5 | 1.0 | 8.0 | 0.00 | 0.34 | 0.31 | 85 | 1015.1 |
| 20260903145314 | 75 | 297 | 1.0 | 8.0 | 0.00 | 0.34 | 0.31 | 86 | 1015.0 |
| 20260903144830 | 74 | 119 | 1.0 | 4.0 | 0.00 | 0.34 | 0.31 | 86 | 1015.0 |
| 20260903144327 | 74 | 355 | 1.0 | 4.0 | 0.00 | 0.34 | 0.31 | 87 | 1014.9 |
| 20260903143824 | 74 | 335 | 3.0 | 4.0 | 0.00 | 0.34 | 0.31 | 86 | 1014.8 |
| 20260903143321 | 74 | 302 | 1.0 | 8.0 | 0.00 | 0.34 | 0.31 | 87 | 1014.8 |
| 20260903142820 | 74 | 360 | 3.0 | 8.0 | 0.00 | 0.34 | 0.31 | 87 | 1015.2 |
| 20260903142318 | 73 | 5 | 3.0 | 9.0 | 0.00 | 0.34 | 0.31 | 88 | 1015.1 |
| 20260903141814 | 73 | 346 | 3.0 | 9.0 | 0.00 | 0.34 | 0.31 | 89 | 1015.0 |
| 20260903141312 | 73 | 304 | 2.0 | 7.0 | 0.00 | 0.34 | 0.31 | 90 | 1015.1 |
| 20260903140829 | 72 | 326 | 2.0 | 8.0 | 0.00 | 0.34 | 0.31 | 90 | 1014.9 |
| 20260903140326 | 72 | 304 | 3.0 | 8.0 | 0.00 | 0.34 | 0.31 | 90 | 1015.0 |
| 20260903135822 | 72 | 346 | 3.0 | 7.0 | 0.00 | 0.35 | 0.31 | 91 | 1015.0 |
| 20260903135324 | 72 | 190 | 1.0 | 10.0 | 0.00 | 0.35 | 0.31 | 92 | 1015.0 |
| 20260903134821 | 72 | 355 | 3.0 | 5.0 | 0.00 | 0.35 | 0.31 | 92 | 1015.0 |
| 20260903134318 | 72 | 18 | 0.0 | 4.0 | 0.00 | 0.35 | 0.31 | 93 | 1014.9 |
| 20260903133814 | 71 | 309 | 1.0 | 7.0 | 0.00 | 0.35 | 0.31 | 93 | 1014.9 |
| 20260903133331 | 71 | 308 | 2.0 | 7.0 | 0.00 | 0.35 | 0.31 | 94 | 1015.3 |
| 20260903132825 | 71 | 51 | 2.0 | 6.0 | 0.00 | 0.35 | 0.31 | 94 | 1015.4 |
| 20260903132323 | 71 | 250 | 2.0 | 4.0 | 0.00 | 0.35 | 0.31 | 94 | 1015.4 |
| 20260903131824 | 71 | 5 | 1.0 | 3.0 | 0.00 | 0.35 | 0.31 | 94 | 1015.2 |
| 20260903131321 | 71 | 30 | 1.0 | 3.0 | 0.00 | 0.35 | 0.31 | 94 | 1015.2 |
| 20260903130818 | 70 | 355 | 0.0 | 2.0 | 0.00 | 0.35 | 0.31 | 95 | 1015.2 |
| 20260903130315 | 71 | 355 | 0.0 | 3.0 | 0.00 | 0.35 | 0.31 | 95 | 1015.1 |
| 20260903125828 | 70 | 340 | 1.0 | 3.0 | 0.00 | 0.36 | 0.31 | 96 | 1015.0 |
| 20260903125325 | 70 | 74 | 0.0 | 2.0 | 0.00 | 0.36 | 0.31 | 96 | 1014.9 |
| 20260903124822 | 70 | 164 | 0.0 | 0.0 | 0.00 | 0.36 | 0.31 | 96 | 1014.9 |
| 20260903124323 | 69 | 175 | 0.0 | 0.0 | 0.00 | 0.36 | 0.31 | 96 | 1015.0 |
| 20260903123820 | 69 | 174 | 0.0 | 0.0 | 0.00 | 0.36 | 0.31 | 96 | 1015.0 |
| 20260903123317 | 69 | 174 | 0.0 | 0.0 | 0.00 | 0.36 | 0.31 | 97 | 1015.1 |
| 20260903122811 | 69 | 174 | 0.0 | 1.0 | 0.00 | 0.36 | 0.31 | 96 | 1015.1 |
| 20260903122328 | 69 | 174 | 0.0 | 2.0 | 0.00 | 0.36 | 0.31 | 97 | 1014.9 |
| 20260903121825 | 68 | 111 | 0.0 | 2.0 | 0.00 | 0.36 | 0.31 | 97 | 1014.9 |
| 20260903121322 | 68 | 327 | 0.0 | 4.0 | 0.00 | 0.36 | 0.31 | 96 | 1015.1 |
| 20260903120823 | 68 | 346 | 2.0 | 4.0 | 0.00 | 0.36 | 0.31 | 96 | 1015.2 |
| 20260903120320 | 68 | 337 | 0.0 | 1.0 | 0.00 | 0.36 | 0.31 | 97 | 1015.0 |